createdAt,value
2019-01-28T00:03:23.772Z,26.33
2019-01-28T00:08:26.066Z,25.20
2019-01-28T00:13:28.357Z,40.73
2019-01-28T00:18:31.296Z,24.67
2019-01-28T00:23:34.482Z,34.93
2019-01-28T00:28:36.753Z,17.57
2019-01-28T00:33:39.555Z,26.90
2019-01-28T00:38:41.941Z,24.67
2019-01-28T00:43:44.495Z,24.47
2019-01-28T00:48:47.604Z,25.00
2019-01-28T00:53:50.697Z,24.47
2019-01-28T00:58:53.692Z,19.40
2019-01-28T01:03:56.143Z,39.50
2019-01-28T01:08:58.432Z,22.40
2019-01-28T01:14:00.720Z,21.47
2019-01-28T01:19:03.777Z,34.37
2019-01-28T01:24:06.324Z,20.90
2019-01-28T01:29:09.386Z,19.77
2019-01-28T01:34:11.724Z,19.57
2019-01-28T01:39:14.416Z,22.67
2019-01-28T01:44:16.711Z,19.87
2019-01-28T01:49:19.443Z,15.80
2019-01-28T01:54:21.893Z,36.27
2019-01-28T01:59:24.764Z,24.03
2019-01-28T02:04:27.594Z,38.83
2019-01-28T02:09:30.162Z,44.40
2019-01-28T02:14:32.179Z,18.90
2019-01-28T02:19:34.823Z,23.10
2019-01-28T02:24:37.254Z,33.23
2019-01-28T02:29:39.625Z,21.33
2019-01-28T02:34:41.965Z,34.60
2019-01-28T02:39:44.748Z,16.83
2019-01-28T02:44:47.592Z,44.37
2019-01-28T02:49:49.962Z,40.03
2019-01-28T02:54:52.427Z,26.27
2019-01-28T02:59:55.096Z,34.50
2019-01-28T03:04:57.384Z,30.23
2019-01-28T03:09:59.700Z,37.67
2019-01-28T03:15:02.190Z,28.20
2019-01-28T03:20:05.995Z,43.10
2019-01-28T03:25:09.589Z,25.80
2019-01-28T03:30:14.842Z,30.03
2019-01-28T03:35:18.140Z,35.43
2019-01-28T03:40:21.110Z,30.60
2019-01-28T03:45:23.598Z,27.70
2019-01-28T03:50:26.567Z,22.03
2019-01-28T03:55:29.303Z,39.93
2019-01-28T04:00:32.158Z,26.73
2019-01-28T04:05:34.470Z,38.83
2019-01-28T04:10:37.549Z,40.63
2019-01-28T04:15:39.790Z,41.63
2019-01-28T04:20:42.076Z,36.37
2019-01-28T04:25:44.633Z,38.50
2019-01-28T04:30:47.683Z,32.20
2019-01-28T04:35:50.385Z,35.77
2019-01-28T04:40:52.892Z,47.60
2019-01-28T04:45:55.196Z,53.53
2019-01-28T04:50:57.789Z,33.87
2019-01-28T04:56:00.788Z,40.00
2019-01-28T05:01:03.440Z,32.60
2019-01-28T05:06:06.413Z,44.63
2019-01-28T05:11:08.578Z,35.07
2019-01-28T05:16:11.332Z,41.50
2019-01-28T05:21:14.315Z,35.30
2019-01-28T05:26:16.390Z,45.53
2019-01-28T05:31:18.823Z,43.73
2019-01-28T05:36:21.696Z,47.10
2019-01-28T05:41:24.694Z,36.33
2019-01-28T05:46:27.259Z,38.97
2019-01-28T05:51:29.523Z,36.83
2019-01-28T05:56:32.234Z,44.67
2019-01-28T06:01:34.276Z,40.83
2019-01-28T06:06:37.282Z,46.37
2019-01-28T06:11:39.883Z,36.10
2019-01-28T06:16:41.897Z,33.10
2019-01-28T06:21:44.107Z,43.80
2019-01-28T06:26:46.549Z,41.40
2019-01-28T06:31:48.861Z,30.57
2019-01-28T06:36:51.570Z,39.47
2019-01-28T06:41:54.249Z,38.13
2019-01-28T06:46:56.733Z,38.07
2019-01-28T06:51:59.401Z,39.00
2019-01-28T06:57:01.984Z,45.37
2019-01-28T07:02:05.393Z,35.83
2019-01-28T07:07:07.994Z,38.03
2019-01-28T07:12:10.920Z,38.13
2019-01-28T07:17:13.795Z,30.97
2019-01-28T07:22:16.712Z,35.30
2019-01-28T07:27:19.728Z,37.77
2019-01-28T07:32:22.765Z,41.60
2019-01-28T07:37:25.086Z,35.60
2019-01-28T07:42:28.233Z,36.93
2019-01-28T07:47:30.791Z,37.13
2019-01-28T07:52:32.788Z,33.57
2019-01-28T07:57:35.901Z,36.07
2019-01-28T08:02:38.584Z,37.53
2019-01-28T08:07:41.546Z,42.40
2019-01-28T08:12:44.742Z,49.20
2019-01-28T08:17:47.987Z,37.30
2019-01-28T08:22:50.788Z,38.00
2019-01-28T08:27:53.464Z,43.00
2019-01-28T08:32:56.173Z,38.23
2019-01-28T08:37:59.491Z,39.97
2019-01-28T08:43:02.930Z,36.33
2019-01-28T08:48:05.767Z,36.57
2019-01-28T08:53:07.854Z,42.83
2019-01-28T08:58:10.462Z,41.27
2019-01-28T09:03:13.103Z,43.27
2019-01-28T09:08:16.149Z,37.70
2019-01-28T09:13:17.925Z,45.17
2019-01-28T09:18:26.201Z,38.40
2019-01-28T09:23:25.000Z,43.90
2019-01-28T09:28:27.790Z,37.83
2019-01-28T09:33:29.748Z,41.63
2019-01-28T09:38:32.557Z,42.40
2019-01-28T09:43:35.448Z,35.27
2019-01-28T09:48:37.862Z,37.87
2019-01-28T09:53:40.028Z,43.83
2019-01-28T09:58:42.521Z,50.43
2019-01-28T10:03:45.476Z,38.53
2019-01-28T10:08:49.825Z,50.70
2019-01-28T10:13:51.852Z,41.80
2019-01-28T10:18:54.123Z,46.80
2019-01-28T10:23:57.263Z,39.07
2019-01-28T10:29:00.219Z,39.00
2019-01-28T10:34:03.158Z,46.33
2019-01-28T10:39:10.173Z,40.93
2019-01-28T10:44:13.557Z,37.77
2019-01-28T10:49:15.853Z,35.63
2019-01-28T10:54:18.350Z,32.23
2019-01-28T10:59:21.218Z,37.87
2019-01-28T11:04:24.356Z,41.50
2019-01-28T11:09:26.793Z,38.20
2019-01-28T11:14:29.252Z,41.37
2019-01-28T11:19:32.448Z,34.97
2019-01-28T11:24:35.441Z,37.17
2019-01-28T11:29:38.264Z,41.23
2019-01-28T11:34:40.986Z,35.23
2019-01-28T11:39:43.972Z,39.77
2019-01-28T11:44:46.531Z,42.50
2019-01-28T11:49:49.710Z,39.37
2019-01-28T11:54:52.829Z,41.17
2019-01-28T11:59:55.981Z,35.80
2019-01-28T12:04:58.644Z,43.70
2019-01-28T12:10:01.472Z,42.73
2019-01-28T12:15:06.220Z,39.07
2019-01-28T12:20:09.157Z,50.70
2019-01-28T12:25:12.506Z,41.93
2019-01-28T12:30:18.235Z,37.57
2019-01-28T12:35:21.709Z,41.43
2019-01-28T12:40:24.314Z,39.43
2019-01-28T12:45:26.622Z,39.10
2019-01-28T12:50:29.522Z,43.53
2019-01-28T12:55:33.935Z,46.47
2019-01-28T13:00:39.946Z,40.60
2019-01-28T13:05:42.721Z,43.33
2019-01-28T13:10:45.678Z,43.90
2019-01-28T13:15:48.983Z,39.40
2019-01-28T13:20:51.576Z,33.77
2019-01-28T13:25:54.277Z,34.07
2019-01-28T13:30:57.338Z,33.77
2019-01-28T13:36:00.551Z,41.27
2019-01-28T13:41:03.109Z,34.87
2019-01-28T13:46:05.526Z,37.07
2019-01-28T13:51:08.241Z,42.63
2019-01-28T13:56:11.436Z,43.40
2019-01-28T14:01:14.348Z,43.47
2019-01-28T14:06:17.343Z,42.17
2019-01-28T14:11:20.080Z,40.30
2019-01-28T14:16:22.153Z,45.30
2019-01-28T14:21:24.562Z,44.63
2019-01-28T14:26:27.436Z,42.87
2019-01-28T14:31:29.827Z,47.23
2019-01-28T14:36:32.850Z,42.67
2019-01-28T14:41:35.647Z,45.50
2019-01-28T14:46:38.733Z,52.67
2019-01-28T14:51:41.703Z,44.77
2019-01-28T14:56:44.139Z,48.77
2019-01-28T15:01:46.845Z,51.80
2019-01-28T15:06:49.226Z,50.70
2019-01-28T15:11:51.720Z,48.83
2019-01-28T15:16:54.215Z,44.73
2019-01-28T15:21:56.380Z,47.03
2019-01-28T15:26:59.130Z,53.20
2019-01-28T15:32:01.473Z,57.40
2019-01-28T15:37:04.292Z,47.30
2019-01-28T15:42:07.043Z,49.53
2019-01-28T15:47:10.070Z,48.00
2019-01-28T15:52:12.896Z,52.67
2019-01-28T15:57:15.274Z,48.70
2019-01-28T16:02:17.671Z,55.53
2019-01-28T16:07:20.280Z,19.37
2019-01-28T16:12:22.705Z,10.60
2019-01-28T16:17:25.956Z,5.97
2019-01-28T16:22:28.969Z,5.60
2019-01-28T16:27:31.596Z,6.27
2019-01-28T16:32:34.698Z,7.17
2019-01-28T16:37:37.577Z,6.00
2019-01-28T16:42:40.082Z,7.33
2019-01-28T16:47:42.871Z,6.60
2019-01-28T16:52:45.319Z,10.37
2019-01-28T16:57:48.371Z,11.57
2019-01-28T17:02:51.614Z,11.00
2019-01-28T17:07:54.544Z,12.97
2019-01-28T17:12:56.984Z,12.20
2019-01-28T17:17:59.528Z,27.03
2019-01-28T17:23:02.970Z,17.70
2019-01-28T17:28:05.256Z,16.27
2019-01-28T17:33:08.542Z,11.20
2019-01-28T17:38:11.471Z,9.83
2019-01-28T17:43:15.668Z,9.30
2019-01-28T17:48:18.204Z,11.10
2019-01-28T17:53:21.028Z,10.00
2019-01-28T17:58:23.824Z,8.17
2019-01-28T18:03:26.627Z,8.50
2019-01-28T18:08:29.424Z,7.67
2019-01-28T18:13:35.161Z,8.13
2019-01-28T18:18:37.999Z,8.43
2019-01-28T18:23:47.050Z,9.60
2019-01-28T18:28:52.646Z,10.63
2019-01-28T18:33:55.431Z,13.10
2019-01-28T18:38:58.550Z,13.50
2019-01-28T18:44:01.631Z,12.87
2019-01-28T18:49:05.256Z,8.27
2019-01-28T18:54:09.299Z,11.47
2019-01-28T18:59:12.788Z,8.10
2019-01-28T19:04:16.110Z,6.83
2019-01-28T19:09:26.860Z,11.27
2019-01-28T19:14:44.640Z,13.73
2019-01-28T19:20:16.436Z,12.40
2019-01-28T19:25:20.165Z,7.90
2019-01-28T19:30:24.302Z,15.27
2019-01-28T19:35:27.841Z,18.83
2019-01-28T19:40:30.985Z,11.43
2019-01-28T19:45:36.276Z,13.17
2019-01-28T19:50:41.023Z,15.43
2019-01-28T19:55:46.527Z,12.07
2019-01-28T20:00:53.793Z,10.33
2019-01-28T20:06:00.260Z,10.60
2019-01-28T20:11:06.253Z,18.37
2019-01-28T20:16:12.301Z,15.30
2019-01-28T20:21:23.630Z,11.60
2019-01-28T20:26:25.817Z,12.27
2019-01-28T20:31:31.506Z,12.07
2019-01-28T20:36:36.426Z,14.90
2019-01-28T20:41:41.984Z,10.00
2019-01-28T20:46:45.946Z,10.50
2019-01-28T20:51:52.011Z,9.37
2019-01-28T20:56:56.191Z,15.63
2019-01-28T21:01:59.742Z,12.17
2019-01-28T21:07:02.574Z,12.73
2019-01-28T21:12:05.451Z,7.53
2019-01-28T21:17:10.712Z,8.03
2019-01-28T21:22:13.099Z,10.67
2019-01-28T21:27:18.486Z,6.83
2019-01-28T21:32:21.983Z,8.80
2019-01-28T21:37:31.011Z,6.13
2019-01-28T21:42:33.846Z,8.93
2019-01-28T21:47:36.927Z,5.93
2019-01-28T21:52:39.519Z,10.20
2019-01-28T21:57:42.716Z,5.13
2019-01-28T22:02:45.835Z,6.83
2019-01-28T22:07:48.792Z,6.17
2019-01-28T22:12:51.910Z,6.93
2019-01-28T22:17:54.909Z,10.77
2019-01-28T22:22:57.861Z,7.23
2019-01-28T22:28:00.619Z,7.83
2019-01-28T22:33:03.415Z,11.50
2019-01-28T22:38:06.031Z,7.37
2019-01-28T22:43:08.321Z,6.63
2019-01-28T22:48:10.520Z,9.70
2019-01-28T22:53:13.509Z,8.50
2019-01-28T22:58:15.909Z,8.93
2019-01-28T23:09:53.758Z,9.53
2019-01-28T23:14:56.829Z,11.10
2019-01-28T23:20:00.255Z,9.10
2019-01-28T23:25:05.808Z,11.63
2019-01-28T23:30:10.828Z,9.87
2019-01-28T23:35:14.967Z,7.07
2019-01-28T23:40:18.195Z,8.33
2019-01-28T23:45:21.513Z,10.20
2019-01-28T23:50:24.408Z,8.10
2019-01-28T23:55:27.938Z,14.10
